Terminal Aerodrome Forecast
Issued by NWS Milwaukee/Sullivan, WI

Home | Current Version | Previous Version | Text Only | Print | Product List | Glossary On
Versions: 1 2 3 4 5 6 7 8 9 10 11 12 13 14 15 16 17 18 19 20 21 22 23 24 25 26 27 28 29 30 31 32 33 34 35 36 37 38 39 40 41 42 43 44 45 46 47 48 49 50
000
FTUS43 KMKX 212320
TAFMSN
TAF
KMSN 212320Z 2200/2224 17011KT 6SM BR BKN012 OVC020
     FM220700 16011KT 6SM BR OVC015
     FM221400 14011KT P6SM OVC035
     FM221500 13011KT 6SM BR OVC020
     FM221800 12012KT 3SM -RA BR OVC015
     FM222000 11014KT 2SM -RA BR OVC010=

USA.gov is the U.S. government's official web portal to all federal, state and local government web resources and services.